createdAt,value
2023-04-23T00:02:18.549Z,94.46
2023-04-23T00:04:50.693Z,94.60
2023-04-23T00:07:19.356Z,94.64
2023-04-23T00:09:46.601Z,94.42
2023-04-23T00:12:14.124Z,94.85
2023-04-23T00:14:41.362Z,94.86
2023-04-23T00:17:08.290Z,95.36
2023-04-23T00:19:35.180Z,95.68
2023-04-23T00:22:02.004Z,95.96
2023-04-23T00:24:28.803Z,96.09
2023-04-23T00:26:55.656Z,96.02
2023-04-23T00:29:22.454Z,96.13
2023-04-23T00:31:49.411Z,96.75
2023-04-23T00:34:16.235Z,97.22
2023-04-23T00:36:43.227Z,97.34
2023-04-23T00:39:11.538Z,97.41
2023-04-23T00:41:38.311Z,97.33
2023-04-23T00:44:05.763Z,97.30
2023-04-23T00:46:32.690Z,97.24
2023-04-23T00:49:00.545Z,97.06
2023-04-23T00:51:28.291Z,97.05
2023-04-23T00:53:55.857Z,97.56
2023-04-23T00:56:24.320Z,97.78
2023-04-23T00:58:52.081Z,97.53
2023-04-23T01:01:21.069Z,97.26
2023-04-23T01:03:50.024Z,97.41
2023-04-23T01:06:17.630Z,96.92
2023-04-23T01:08:45.504Z,96.52
2023-04-23T01:11:14.849Z,96.35
2023-04-23T01:13:42.728Z,96.07
2023-04-23T01:16:10.334Z,95.96
2023-04-23T01:18:38.316Z,95.75
2023-04-23T01:21:07.175Z,95.42
2023-04-23T01:23:34.141Z,95.48
2023-04-23T01:26:04.352Z,94.96
2023-04-23T01:28:31.373Z,94.76
2023-04-23T01:30:58.654Z,94.59
2023-04-23T01:33:26.764Z,94.23
2023-04-23T01:35:54.714Z,93.61
2023-04-23T01:38:23.085Z,93.89
2023-04-23T01:40:50.591Z,93.38
2023-04-23T01:43:17.982Z,93.45
2023-04-23T01:45:45.245Z,93.51
2023-04-23T01:48:12.196Z,94.47
2023-04-23T01:50:40.000Z,94.97
2023-04-23T01:53:06.894Z,95.09
2023-04-23T01:55:35.192Z,95.24
2023-04-23T01:58:02.038Z,96.00
2023-04-23T02:00:30.143Z,96.23
2023-04-23T02:02:57.904Z,95.93
2023-04-23T02:05:26.059Z,96.01
2023-04-23T02:07:53.241Z,96.12
2023-04-23T02:10:21.028Z,95.89
2023-04-23T02:12:48.431Z,95.95
2023-04-23T02:15:16.212Z,96.06
2023-04-23T02:17:43.552Z,95.38
2023-04-23T02:20:11.930Z,94.99
2023-04-23T02:22:40.603Z,94.66
2023-04-23T02:25:08.903Z,93.47
2023-04-23T02:27:36.500Z,93.25
2023-04-23T02:30:04.202Z,93.35
2023-04-23T02:32:31.490Z,94.25
2023-04-23T02:34:59.946Z,94.03
2023-04-23T02:37:27.470Z,93.60
2023-04-23T02:39:54.681Z,92.42
2023-04-23T02:42:21.541Z,93.41
2023-04-23T02:44:48.537Z,93.32
2023-04-23T02:47:15.702Z,92.70
2023-04-23T02:49:42.882Z,92.70
2023-04-23T02:52:10.083Z,92.79
2023-04-23T02:54:38.187Z,92.67
2023-04-23T02:57:05.331Z,92.20
2023-04-23T02:59:32.745Z,92.72
2023-04-23T03:01:59.778Z,92.00
2023-04-23T03:04:26.774Z,91.78
2023-04-23T03:06:53.663Z,91.70
2023-04-23T03:09:20.525Z,90.93
2023-04-23T03:11:51.207Z,90.84
2023-04-23T03:14:18.037Z,90.82
2023-04-23T03:16:45.095Z,90.89
2023-04-23T03:19:12.040Z,90.09
2023-04-23T03:21:38.983Z,89.58
2023-04-23T03:24:06.065Z,88.91
2023-04-23T03:26:33.157Z,88.83
2023-04-23T03:29:00.300Z,89.34
2023-04-23T03:31:27.432Z,88.65
2023-04-23T03:33:54.390Z,88.38
2023-04-23T03:36:21.759Z,87.59
2023-04-23T03:38:48.850Z,87.35
2023-04-23T03:41:15.860Z,87.29
2023-04-23T03:43:42.769Z,87.75
2023-04-23T03:46:09.730Z,86.84
2023-04-23T03:48:36.601Z,86.61
2023-04-23T03:51:03.960Z,86.78
2023-04-23T03:53:31.216Z,87.45
2023-04-23T03:55:58.283Z,87.15
2023-04-23T03:58:25.195Z,86.36
2023-04-23T04:00:53.202Z,86.54
2023-04-23T04:03:20.309Z,86.46
2023-04-23T04:05:47.531Z,87.18
2023-04-23T04:08:15.003Z,87.77
2023-04-23T04:10:41.947Z,87.57
2023-04-23T04:13:08.839Z,87.49
2023-04-23T04:15:35.932Z,88.39
2023-04-23T04:18:03.035Z,87.44
2023-04-23T04:20:32.415Z,87.52
2023-04-23T04:22:59.486Z,87.84
2023-04-23T04:25:29.274Z,88.02
2023-04-23T04:27:56.161Z,88.76
2023-04-23T04:30:23.438Z,88.72
2023-04-23T04:32:51.491Z,88.78
2023-04-23T04:35:18.434Z,88.35
2023-04-23T04:37:45.427Z,89.24
2023-04-23T04:40:13.048Z,88.85
2023-04-23T04:42:40.001Z,88.39
2023-04-23T04:45:09.087Z,87.95
2023-04-23T04:47:36.600Z,87.75
2023-04-23T04:50:03.960Z,87.89
2023-04-23T04:52:31.366Z,88.09
2023-04-23T04:54:58.849Z,87.40
2023-04-23T04:57:26.031Z,87.25
2023-04-23T04:59:52.938Z,86.54
2023-04-23T05:02:21.803Z,87.20
2023-04-23T05:04:49.284Z,87.48
2023-04-23T05:07:16.623Z,86.74
2023-04-23T05:09:45.088Z,85.95
2023-04-23T05:12:12.570Z,86.92
2023-04-23T05:14:40.123Z,87.15
2023-04-23T05:17:07.485Z,86.14
2023-04-23T05:19:34.655Z,86.17
2023-04-23T05:22:04.277Z,86.39
2023-04-23T05:24:31.274Z,85.88
2023-04-23T05:26:58.340Z,85.83
2023-04-23T05:29:25.403Z,85.70
2023-04-23T05:31:52.523Z,85.32
2023-04-23T05:34:20.394Z,84.67
2023-04-23T05:36:48.115Z,85.49
2023-04-23T05:39:16.727Z,84.18
2023-04-23T05:41:44.182Z,85.21
2023-04-23T05:44:12.041Z,84.83
2023-04-23T05:46:39.169Z,84.86
2023-04-23T05:49:06.806Z,85.18
2023-04-23T05:51:36.339Z,84.24
2023-04-23T05:54:04.287Z,84.41
2023-04-23T05:56:31.574Z,84.26
2023-04-23T05:58:58.419Z,84.17
2023-04-23T06:01:26.083Z,84.93
2023-04-23T06:03:53.963Z,84.11
2023-04-23T06:06:21.141Z,85.08
2023-04-23T06:08:48.488Z,84.24
2023-04-23T06:11:15.503Z,83.59
2023-04-23T06:13:43.948Z,83.07
2023-04-23T06:16:12.178Z,83.85
2023-04-23T06:18:40.215Z,83.99
2023-04-23T06:21:07.401Z,83.45
2023-04-23T06:23:35.140Z,82.87
2023-04-23T06:26:04.885Z,82.55
2023-04-23T06:28:32.286Z,82.87
2023-04-23T06:31:00.867Z,82.02
2023-04-23T06:33:28.777Z,82.63
2023-04-23T06:35:55.899Z,83.48
2023-04-23T06:38:23.523Z,82.71
2023-04-23T06:40:50.720Z,81.97
2023-04-23T06:43:17.881Z,81.71
2023-04-23T06:45:45.063Z,81.60
2023-04-23T06:48:13.507Z,80.75
2023-04-23T06:50:41.051Z,81.10
2023-04-23T06:53:10.132Z,80.86
2023-04-23T06:55:37.664Z,81.66
2023-04-23T06:58:07.648Z,81.33
2023-04-23T07:00:37.990Z,80.38
2023-04-23T07:03:05.455Z,81.70
2023-04-23T07:05:32.954Z,79.76
2023-04-23T07:08:00.952Z,77.33
2023-04-23T07:10:29.157Z,77.21
2023-04-23T07:12:56.568Z,75.35
2023-04-23T07:15:24.140Z,76.49
2023-04-23T07:17:51.563Z,75.75
2023-04-23T07:20:22.793Z,76.28
2023-04-23T07:22:50.157Z,76.88
2023-04-23T07:25:23.690Z,76.33
2023-04-23T07:27:51.677Z,76.84
2023-04-23T07:30:19.892Z,77.12
2023-04-23T07:32:51.900Z,76.67
2023-04-23T07:35:20.219Z,76.50
2023-04-23T07:37:47.544Z,75.25
2023-04-23T07:40:16.140Z,76.12
2023-04-23T07:42:43.743Z,75.83
2023-04-23T07:45:14.747Z,74.74
2023-04-23T07:47:42.466Z,75.66
2023-04-23T07:50:14.905Z,75.19
2023-04-23T07:52:43.590Z,74.54
2023-04-23T07:55:12.141Z,74.64
2023-04-23T07:57:39.749Z,73.64
2023-04-23T08:00:14.484Z,74.31
2023-04-23T08:02:42.451Z,73.93
2023-04-23T08:05:11.114Z,74.61
2023-04-23T08:07:39.363Z,74.42
2023-04-23T08:10:08.191Z,74.03
2023-04-23T08:12:46.907Z,74.07
2023-04-23T08:15:16.869Z,73.85
2023-04-23T08:17:55.212Z,74.41
2023-04-23T08:20:26.313Z,74.20
2023-04-23T08:25:42.696Z,73.98
2023-04-23T08:31:15.179Z,73.90
2023-04-23T08:33:50.593Z,73.32
2023-04-23T08:36:24.497Z,73.25
2023-04-23T08:38:56.466Z,74.47
2023-04-23T08:41:54.034Z,73.90
2023-04-23T08:44:39.150Z,73.03
2023-04-23T08:47:27.565Z,74.54
2023-04-23T08:52:54.264Z,75.51
2023-04-23T08:55:41.864Z,74.66
2023-04-23T08:58:27.444Z,74.34
2023-04-23T09:00:55.635Z,74.08
2023-04-23T09:03:24.689Z,74.48
2023-04-23T09:05:53.492Z,75.42
2023-04-23T09:08:21.588Z,75.61
2023-04-23T09:10:48.762Z,75.75
2023-04-23T09:13:15.618Z,75.76
2023-04-23T09:15:43.984Z,74.56
2023-04-23T09:18:11.287Z,73.43
2023-04-23T09:20:38.291Z,72.71
2023-04-23T09:23:08.639Z,73.31
2023-04-23T09:25:37.006Z,73.75
2023-04-23T09:28:07.974Z,74.64
2023-04-23T09:30:39.415Z,74.69
2023-04-23T09:33:06.470Z,73.98
2023-04-23T09:35:36.051Z,74.64
2023-04-23T09:38:07.987Z,76.24
2023-04-23T09:40:35.121Z,75.41
2023-04-23T09:43:03.816Z,76.00
2023-04-23T09:45:31.143Z,76.43
2023-04-23T09:47:58.656Z,75.80
2023-04-23T09:50:34.980Z,75.26
2023-04-23T09:53:01.956Z,75.40
2023-04-23T09:55:31.141Z,75.54
2023-04-23T09:57:58.625Z,75.64
2023-04-23T10:00:29.723Z,76.27
2023-04-23T10:02:56.848Z,77.38
2023-04-23T10:05:25.928Z,76.99
2023-04-23T10:07:57.841Z,75.03
2023-04-23T10:10:25.109Z,75.41
2023-04-23T10:12:55.877Z,75.89
2023-04-23T10:15:23.955Z,76.28
2023-04-23T10:17:52.042Z,77.89
2023-04-23T10:20:21.368Z,78.28
2023-04-23T10:22:48.741Z,77.85
2023-04-23T10:25:16.206Z,78.09
2023-04-23T10:27:52.196Z,77.12
2023-04-23T10:30:20.752Z,77.42
2023-04-23T10:32:49.102Z,78.12
2023-04-23T10:35:16.288Z,75.86
2023-04-23T10:37:44.658Z,76.25
2023-04-23T10:40:14.650Z,75.68
2023-04-23T10:42:43.391Z,75.58
2023-04-23T10:45:23.424Z,75.18
2023-04-23T10:47:51.467Z,74.52
2023-04-23T10:50:21.353Z,71.67
2023-04-23T10:52:51.964Z,73.25
2023-04-23T10:55:20.034Z,72.40
2023-04-23T10:57:55.937Z,72.68
2023-04-23T11:00:22.885Z,73.11
2023-04-23T11:02:51.381Z,75.11
2023-04-23T11:05:18.706Z,75.08
2023-04-23T11:07:55.089Z,72.41
2023-04-23T11:10:22.080Z,71.82
2023-04-23T11:12:49.049Z,71.61
2023-04-23T11:15:17.089Z,72.32
2023-04-23T11:17:44.255Z,73.34
2023-04-23T11:20:13.817Z,72.56
2023-04-23T11:22:43.092Z,72.19
2023-04-23T11:25:11.315Z,73.83
2023-04-23T11:27:39.494Z,76.03
2023-04-23T11:30:11.293Z,77.16
2023-04-23T11:32:38.182Z,76.35
2023-04-23T11:35:05.883Z,75.81
2023-04-23T11:37:32.869Z,77.49
2023-04-23T11:40:07.250Z,78.21
2023-04-23T11:42:40.998Z,78.38
2023-04-23T11:45:08.271Z,77.56
2023-04-23T11:47:35.265Z,80.76
2023-04-23T11:50:02.485Z,80.87
2023-04-23T11:52:29.331Z,81.46
2023-04-23T11:54:56.607Z,79.40
2023-04-23T11:57:23.510Z,79.77
2023-04-23T11:59:53.760Z,77.09
2023-04-23T12:02:25.468Z,75.35
2023-04-23T12:04:52.451Z,76.55
2023-04-23T12:07:26.471Z,77.09
2023-04-23T12:09:58.466Z,77.98
2023-04-23T12:12:32.888Z,77.93
2023-04-23T12:15:07.764Z,77.47
2023-04-23T12:17:35.047Z,77.39
2023-04-23T12:20:05.044Z,77.71
2023-04-23T12:22:32.128Z,78.29
2023-04-23T12:25:00.583Z,77.93
2023-04-23T12:27:28.765Z,77.90
2023-04-23T12:30:05.040Z,80.95
2023-04-23T12:32:36.453Z,82.85
2023-04-23T12:35:06.509Z,83.28
2023-04-23T12:37:36.160Z,83.46
2023-04-23T12:40:03.481Z,84.93
2023-04-23T12:42:30.589Z,85.27
2023-04-23T12:45:05.244Z,84.52
2023-04-23T12:47:32.419Z,82.53
2023-04-23T12:50:01.889Z,83.68
2023-04-23T12:52:28.945Z,82.06
2023-04-23T12:54:57.864Z,80.46
2023-04-23T12:57:24.983Z,78.52
2023-04-23T12:59:51.899Z,79.88
2023-04-23T13:02:18.941Z,81.23
2023-04-23T13:04:45.896Z,82.45
2023-04-23T13:07:15.853Z,83.78
2023-04-23T13:09:43.053Z,84.67
2023-04-23T13:12:10.523Z,85.90
2023-04-23T13:14:37.988Z,85.89
2023-04-23T13:17:04.928Z,86.40
2023-04-23T13:19:32.142Z,86.83
2023-04-23T13:21:59.165Z,87.06
2023-04-23T13:24:26.084Z,87.63
2023-04-23T13:26:53.011Z,86.39
2023-04-23T13:29:19.960Z,87.07
2023-04-23T13:31:47.042Z,86.58
2023-04-23T13:34:13.996Z,87.01
2023-04-23T13:36:42.003Z,87.36
2023-04-23T13:39:09.761Z,88.05
2023-04-23T13:41:36.703Z,86.10
2023-04-23T13:44:03.803Z,86.34
2023-04-23T13:46:31.058Z,87.19
2023-04-23T13:48:58.149Z,86.84
2023-04-23T13:51:34.900Z,86.64
2023-04-23T13:54:03.046Z,87.38
2023-04-23T13:56:32.862Z,87.96
2023-04-23T13:59:18.188Z,88.14
2023-04-23T14:01:47.386Z,84.54
2023-04-23T14:04:16.612Z,82.90
2023-04-23T14:06:43.663Z,83.52
2023-04-23T14:09:11.119Z,84.30
2023-04-23T14:11:40.516Z,82.88
2023-04-23T14:14:08.024Z,83.14
2023-04-23T14:16:35.780Z,82.55
2023-04-23T14:19:03.031Z,81.88
2023-04-23T14:21:30.009Z,80.89
2023-04-23T14:24:01.449Z,81.64
2023-04-23T14:26:47.117Z,81.13
2023-04-23T14:29:24.724Z,79.66
2023-04-23T14:31:52.009Z,80.74
2023-04-23T14:34:18.910Z,81.80
2023-04-23T14:36:49.503Z,80.85
2023-04-23T14:39:16.587Z,79.76
2023-04-23T14:41:43.584Z,75.68
2023-04-23T14:44:10.696Z,73.68
2023-04-23T14:46:37.916Z,74.79
2023-04-23T14:49:05.145Z,73.07
2023-04-23T14:51:32.091Z,73.49
2023-04-23T14:53:59.099Z,72.21
2023-04-23T14:56:26.498Z,72.21
2023-04-23T14:58:53.628Z,71.90
2023-04-23T15:01:20.780Z,73.28
2023-04-23T15:03:48.092Z,71.42
2023-04-23T15:06:15.551Z,69.57
2023-04-23T15:08:42.546Z,69.65
2023-04-23T15:11:13.751Z,69.12
2023-04-23T15:13:50.065Z,68.96
2023-04-23T15:16:40.068Z,66.04
2023-04-23T15:19:12.769Z,65.52
2023-04-23T15:21:39.928Z,65.99
2023-04-23T15:24:08.268Z,67.51
2023-04-23T15:26:35.269Z,68.69
2023-04-23T15:29:03.520Z,66.82
2023-04-23T15:31:30.576Z,67.48
2023-04-23T15:33:57.673Z,68.81
2023-04-23T15:36:27.055Z,67.41
2023-04-23T15:38:54.058Z,67.57
2023-04-23T15:41:21.100Z,68.42
2023-04-23T15:43:50.615Z,66.69
2023-04-23T15:46:17.614Z,67.21
2023-04-23T15:48:44.576Z,67.12
2023-04-23T15:51:11.563Z,65.10
2023-04-23T15:53:38.607Z,63.20
2023-04-23T15:56:05.595Z,61.59
2023-04-23T15:58:32.563Z,62.00
2023-04-23T16:00:59.530Z,62.56
2023-04-23T16:03:26.907Z,63.47
2023-04-23T16:05:54.125Z,64.71
2023-04-23T16:08:21.105Z,62.47
2023-04-23T16:10:48.005Z,62.21
2023-04-23T16:13:14.919Z,63.58
2023-04-23T16:15:41.926Z,63.39
2023-04-23T16:18:09.084Z,64.78
2023-04-23T16:20:36.651Z,63.91
2023-04-23T16:23:03.546Z,62.54
2023-04-23T16:25:30.483Z,62.02
2023-04-23T16:27:57.527Z,62.52
2023-04-23T16:30:24.526Z,61.39
2023-04-23T16:32:51.722Z,62.05
2023-04-23T16:35:18.710Z,62.36
2023-04-23T16:37:46.036Z,61.55
2023-04-23T16:40:15.745Z,60.68
2023-04-23T16:42:43.248Z,61.24
2023-04-23T16:45:10.363Z,60.59
2023-04-23T16:47:37.403Z,59.78
2023-04-23T16:50:04.427Z,57.19
2023-04-23T16:52:31.408Z,58.12
2023-04-23T16:54:58.676Z,58.97
2023-04-23T16:57:26.133Z,58.75
2023-04-23T16:59:54.386Z,59.19
2023-04-23T17:02:21.554Z,58.69
2023-04-23T17:04:49.148Z,58.07
2023-04-23T17:07:16.481Z,56.62
2023-04-23T17:09:43.798Z,58.48
2023-04-23T17:12:10.736Z,57.98
2023-04-23T17:14:37.667Z,56.38
2023-04-23T17:17:05.017Z,55.55
2023-04-23T17:19:32.082Z,56.36
2023-04-23T17:21:59.323Z,56.68
2023-04-23T17:24:26.323Z,56.19
2023-04-23T17:26:53.222Z,57.66
2023-04-23T17:29:21.750Z,57.65
2023-04-23T17:31:48.955Z,58.69
2023-04-23T17:34:16.228Z,59.81
2023-04-23T17:36:43.170Z,61.82
2023-04-23T17:39:10.074Z,63.52
2023-04-23T17:41:36.984Z,64.46
2023-04-23T17:44:04.217Z,65.27
2023-04-23T17:46:31.063Z,63.51
2023-04-23T17:48:58.009Z,62.86
2023-04-23T17:51:24.970Z,61.38
2023-04-23T17:53:52.484Z,61.27
2023-04-23T17:56:19.449Z,61.24
2023-04-23T17:58:46.587Z,61.71
2023-04-23T18:01:13.637Z,61.06
2023-04-23T18:03:40.692Z,61.89
2023-04-23T18:06:09.068Z,62.03
2023-04-23T18:08:36.747Z,62.38
2023-04-23T18:11:04.956Z,63.12
2023-04-23T18:13:32.055Z,64.27
2023-04-23T18:15:58.896Z,64.23
2023-04-23T18:18:26.360Z,65.48
2023-04-23T18:20:53.396Z,66.46
2023-04-23T18:23:22.530Z,69.38
2023-04-23T18:25:49.808Z,72.58
2023-04-23T18:28:16.821Z,74.43
2023-04-23T18:30:43.870Z,76.79
2023-04-23T18:33:12.366Z,78.99
2023-04-23T18:35:41.840Z,80.31
2023-04-23T18:38:11.290Z,82.18
2023-04-23T18:40:38.302Z,83.65
2023-04-23T18:43:05.446Z,85.54
2023-04-23T18:45:32.843Z,85.05
2023-04-23T18:48:09.224Z,85.41
2023-04-23T18:50:38.215Z,86.94
2023-04-23T18:53:05.663Z,86.75
2023-04-23T18:55:32.627Z,86.04
2023-04-23T18:57:59.765Z,87.16
2023-04-23T19:00:26.810Z,88.19
2023-04-23T19:02:53.901Z,87.68
2023-04-23T19:05:21.033Z,87.93
2023-04-23T19:07:48.726Z,88.31
2023-04-23T19:10:16.829Z,89.05
2023-04-23T19:12:44.550Z,89.31
2023-04-23T19:15:11.772Z,89.71
2023-04-23T19:17:39.027Z,89.03
2023-04-23T19:20:06.775Z,89.38
2023-04-23T19:22:33.682Z,90.39
2023-04-23T19:25:01.567Z,90.86
2023-04-23T19:27:28.501Z,90.91
2023-04-23T19:29:56.965Z,90.89
2023-04-23T19:32:24.175Z,90.57
2023-04-23T19:34:51.077Z,90.79
2023-04-23T19:37:17.985Z,91.07
2023-04-23T19:39:44.892Z,90.59
2023-04-23T19:42:15.364Z,90.52
2023-04-23T19:44:42.271Z,91.61
2023-04-23T19:47:09.208Z,91.67
2023-04-23T19:49:36.332Z,92.05
2023-04-23T19:52:04.118Z,92.16
2023-04-23T19:54:31.162Z,92.10
2023-04-23T19:56:58.026Z,92.32
2023-04-23T19:59:24.912Z,92.63
2023-04-23T20:01:51.793Z,92.23
2023-04-23T20:04:18.983Z,91.90
2023-04-23T20:06:46.427Z,91.85
2023-04-23T20:09:22.138Z,91.73
2023-04-23T20:11:49.167Z,92.06
2023-04-23T20:14:16.047Z,91.83
2023-04-23T20:16:43.054Z,91.97
2023-04-23T20:19:11.386Z,92.01
2023-04-23T20:21:39.272Z,92.17
2023-04-23T20:24:08.181Z,92.08
2023-04-23T20:26:36.224Z,92.64
2023-04-23T20:29:03.702Z,92.45
2023-04-23T20:31:31.354Z,93.05
2023-04-23T20:33:58.585Z,93.17
2023-04-23T20:36:29.204Z,92.58
2023-04-23T20:38:58.581Z,92.31
2023-04-23T20:41:26.613Z,92.73
2023-04-23T20:43:53.532Z,92.98
2023-04-23T20:46:20.667Z,92.99
2023-04-23T20:48:53.224Z,92.54
2023-04-23T20:51:20.467Z,92.76
2023-04-23T20:53:47.581Z,93.06
2023-04-23T20:56:14.699Z,92.40
2023-04-23T20:58:41.922Z,92.13
2023-04-23T21:01:11.653Z,92.06
2023-04-23T21:03:39.718Z,92.42
2023-04-23T21:06:08.084Z,92.26
2023-04-23T21:08:35.084Z,92.46
2023-04-23T21:11:02.372Z,93.27
2023-04-23T21:13:29.333Z,93.27
2023-04-23T21:15:56.403Z,92.88
2023-04-23T21:18:23.316Z,93.09
2023-04-23T21:20:50.189Z,92.99
2023-04-23T21:23:17.067Z,92.59
2023-04-23T21:25:43.897Z,92.89
2023-04-23T21:28:10.825Z,92.83
2023-04-23T21:30:47.099Z,92.95
2023-04-23T21:33:14.362Z,93.09
2023-04-23T21:35:41.355Z,93.54
2023-04-23T21:38:08.905Z,93.49
2023-04-23T21:40:37.060Z,93.59
2023-04-23T21:43:05.047Z,93.34
2023-04-23T21:45:32.374Z,92.94
2023-04-23T21:47:59.348Z,93.08
2023-04-23T21:50:27.732Z,92.97
2023-04-23T21:52:56.329Z,93.16
2023-04-23T21:55:23.420Z,93.19
2023-04-23T21:57:50.325Z,93.17
2023-04-23T22:00:17.760Z,93.43
2023-04-23T22:02:47.909Z,94.05
2023-04-23T22:05:21.547Z,93.93
2023-04-23T22:07:49.091Z,94.21
2023-04-23T22:10:16.621Z,94.25
2023-04-23T22:12:44.350Z,93.81
2023-04-23T22:15:13.448Z,93.98
2023-04-23T22:17:40.833Z,94.26
2023-04-23T22:20:08.773Z,94.30
2023-04-23T22:22:37.107Z,94.52
2023-04-23T22:25:06.636Z,95.06
2023-04-23T22:27:34.879Z,95.26
2023-04-23T22:30:02.065Z,95.83
2023-04-23T22:32:29.563Z,95.50
2023-04-23T22:34:56.579Z,95.47
2023-04-23T22:37:23.821Z,95.85
2023-04-23T22:39:50.636Z,95.91
2023-04-23T22:42:17.799Z,95.91
2023-04-23T22:44:44.884Z,95.90
2023-04-23T22:47:12.355Z,95.68
2023-04-23T22:49:39.232Z,95.39
2023-04-23T22:52:06.121Z,95.41
2023-04-23T22:54:33.040Z,95.67
2023-04-23T22:56:59.876Z,95.55
2023-04-23T22:59:27.310Z,96.32
2023-04-23T23:01:54.245Z,96.37
2023-04-23T23:04:21.156Z,96.53
2023-04-23T23:06:48.222Z,95.98
2023-04-23T23:09:15.119Z,96.28
2023-04-23T23:11:41.998Z,96.44
2023-04-23T23:14:08.935Z,96.34
2023-04-23T23:16:35.816Z,96.22
2023-04-23T23:19:03.239Z,96.10
2023-04-23T23:21:30.121Z,95.98
2023-04-23T23:23:56.911Z,96.15
2023-04-23T23:26:23.715Z,96.36
2023-04-23T23:28:50.587Z,95.90
2023-04-23T23:31:17.534Z,95.81
2023-04-23T23:33:44.618Z,96.31
2023-04-23T23:36:12.312Z,96.87
2023-04-23T23:38:39.458Z,96.33
2023-04-23T23:41:06.225Z,96.31
2023-04-23T23:43:33.177Z,95.87
2023-04-23T23:46:00.011Z,94.99
2023-04-23T23:48:27.055Z,95.34
2023-04-23T23:50:53.879Z,95.02
2023-04-23T23:53:20.754Z,95.04
2023-04-23T23:55:47.671Z,94.43
2023-04-23T23:58:14.480Z,94.26
